sensor_id;sensor_type;location;lat;lon;timestamp;temperature;humidity
997;DHT22;487;50.126;8.698;2023-04-30T04:01:44;11.30;99.90
997;DHT22;487;50.126;8.698;2023-04-30T04:06:41;11.10;99.90
997;DHT22;487;50.126;8.698;2023-04-30T04:09:10;11.10;99.90
997;DHT22;487;50.126;8.698;2023-04-30T04:11:37;11.10;99.90
997;DHT22;487;50.126;8.698;2023-04-30T04:14:05;11.10;99.90
997;DHT22;487;50.126;8.698;2023-04-30T04:16:33;11.10;99.90
997;DHT22;487;50.126;8.698;2023-04-30T04:21:32;11.00;99.90
997;DHT22;487;50.126;8.698;2023-04-30T04:24:00;11.00;99.90
997;DHT22;487;50.126;8.698;2023-04-30T04:26:33;11.00;99.90
997;DHT22;487;50.126;8.698;2023-04-30T04:29:02;11.00;99.90
997;DHT22;487;50.126;8.698;2023-04-30T04:31:31;11.00;99.90
997;DHT22;487;50.126;8.698;2023-04-30T04:34:01;11.00;99.90
997;DHT22;487;50.126;8.698;2023-04-30T04:36:31;10.90;99.90
997;DHT22;487;50.126;8.698;2023-04-30T04:39:00;10.80;99.90
997;DHT22;487;50.126;8.698;2023-04-30T04:41:28;10.90;99.90
997;DHT22;487;50.126;8.698;2023-04-30T04:43:56;10.80;99.90
997;DHT22;487;50.126;8.698;2023-04-30T04:46:25;10.70;99.90
997;DHT22;487;50.126;8.698;2023-04-30T04:48:54;10.80;99.90
997;DHT22;487;50.126;8.698;2023-04-30T04:51:22;10.80;99.90
997;DHT22;487;50.126;8.698;2023-04-30T04:53:51;10.70;99.90
997;DHT22;487;50.126;8.698;2023-04-30T04:56:19;10.70;99.90
997;DHT22;487;50.126;8.698;2023-04-30T04:58:47;10.70;99.90
997;DHT22;487;50.126;8.698;2023-04-30T05:01:14;10.70;99.90
997;DHT22;487;50.126;8.698;2023-04-30T05:03:43;10.70;99.90
997;DHT22;487;50.126;8.698;2023-04-30T05:06:11;10.70;99.90
997;DHT22;487;50.126;8.698;2023-04-30T05:08:39;10.70;99.90
997;DHT22;487;50.126;8.698;2023-04-30T05:11:08;10.70;99.90
997;DHT22;487;50.126;8.698;2023-04-30T05:13:35;10.70;99.90
997;DHT22;487;50.126;8.698;2023-04-30T05:16:04;10.70;99.90
997;DHT22;487;50.126;8.698;2023-04-30T05:18:32;10.70;99.90
997;DHT22;487;50.126;8.698;2023-04-30T05:20:59;10.70;99.90
997;DHT22;487;50.126;8.698;2023-04-30T05:23:27;10.70;99.90
997;DHT22;487;50.126;8.698;2023-04-30T05:25:55;10.70;99.90
997;DHT22;487;50.126;8.698;2023-04-30T05:28:24;10.80;99.90
997;DHT22;487;50.126;8.698;2023-04-30T05:30:52;10.70;99.90
997;DHT22;487;50.126;8.698;2023-04-30T05:33:20;10.70;99.90
997;DHT22;487;50.126;8.698;2023-04-30T05:35:48;10.70;99.90
997;DHT22;487;50.126;8.698;2023-04-30T05:38:16;10.80;99.90
997;DHT22;487;50.126;8.698;2023-04-30T05:40:43;10.80;99.90
997;DHT22;487;50.126;8.698;2023-04-30T05:43:11;10.80;99.90
997;DHT22;487;50.126;8.698;2023-04-30T05:45:40;10.80;99.90
997;DHT22;487;50.126;8.698;2023-04-30T05:48:08;10.80;99.90
997;DHT22;487;50.126;8.698;2023-04-30T05:50:36;10.80;99.90
997;DHT22;487;50.126;8.698;2023-04-30T05:53:04;10.90;99.90
997;DHT22;487;50.126;8.698;2023-04-30T05:55:32;10.90;99.90
997;DHT22;487;50.126;8.698;2023-04-30T05:58:00;11.00;99.90
997;DHT22;487;50.126;8.698;2023-04-30T06:00:27;11.00;99.90
997;DHT22;487;50.126;8.698;2023-04-30T06:02:57;11.00;99.90
997;DHT22;487;50.126;8.698;2023-04-30T06:05:25;11.10;99.90
997;DHT22;487;50.126;8.698;2023-04-30T06:07:53;11.10;99.90
997;DHT22;487;50.126;8.698;2023-04-30T06:10:21;11.10;99.90
997;DHT22;487;50.126;8.698;2023-04-30T06:12:48;11.20;99.90
997;DHT22;487;50.126;8.698;2023-04-30T06:15:16;11.20;99.90
997;DHT22;487;50.126;8.698;2023-04-30T06:17:45;11.30;99.90
997;DHT22;487;50.126;8.698;2023-04-30T06:20:14;11.30;99.90
997;DHT22;487;50.126;8.698;2023-04-30T06:22:42;11.40;99.90
997;DHT22;487;50.126;8.698;2023-04-30T06:25:10;11.40;99.90
997;DHT22;487;50.126;8.698;2023-04-30T06:27:38;11.50;99.90
997;DHT22;487;50.126;8.698;2023-04-30T06:30:07;11.60;99.90
997;DHT22;487;50.126;8.698;2023-04-30T06:32:35;11.60;99.90
997;DHT22;487;50.126;8.698;2023-04-30T06:35:03;11.70;99.90
997;DHT22;487;50.126;8.698;2023-04-30T06:37:32;11.70;99.90
997;DHT22;487;50.126;8.698;2023-04-30T06:40:04;11.70;99.90
997;DHT22;487;50.126;8.698;2023-04-30T06:42:32;11.70;99.90
997;DHT22;487;50.126;8.698;2023-04-30T06:45:00;11.80;99.90
997;DHT22;487;50.126;8.698;2023-04-30T06:47:29;11.80;99.90
997;DHT22;487;50.126;8.698;2023-04-30T06:52:29;12.00;99.90
997;DHT22;487;50.126;8.698;2023-04-30T06:54:58;12.10;99.90
997;DHT22;487;50.126;8.698;2023-04-30T06:57:27;12.10;99.90
997;DHT22;487;50.126;8.698;2023-04-30T06:59:55;12.10;99.90
997;DHT22;487;50.126;8.698;2023-04-30T07:02:23;12.10;99.90
997;DHT22;487;50.126;8.698;2023-04-30T07:04:51;12.10;99.90
997;DHT22;487;50.126;8.698;2023-04-30T07:07:20;12.10;99.90
997;DHT22;487;50.126;8.698;2023-04-30T07:09:48;12.10;99.90
997;DHT22;487;50.126;8.698;2023-04-30T07:12:19;12.20;99.90
997;DHT22;487;50.126;8.698;2023-04-30T07:14:47;12.30;99.90
997;DHT22;487;50.126;8.698;2023-04-30T07:17:15;12.30;99.90
997;DHT22;487;50.126;8.698;2023-04-30T07:19:44;12.40;99.90
997;DHT22;487;50.126;8.698;2023-04-30T07:22:12;12.40;99.90
997;DHT22;487;50.126;8.698;2023-04-30T07:24:39;12.50;99.90
997;DHT22;487;50.126;8.698;2023-04-30T07:27:07;12.60;99.90
997;DHT22;487;50.126;8.698;2023-04-30T07:29:37;12.60;99.90
997;DHT22;487;50.126;8.698;2023-04-30T07:32:05;12.60;99.90
997;DHT22;487;50.126;8.698;2023-04-30T07:34:32;12.70;99.90
997;DHT22;487;50.126;8.698;2023-04-30T07:37:00;12.70;99.90
997;DHT22;487;50.126;8.698;2023-04-30T07:39:28;12.70;99.90
997;DHT22;487;50.126;8.698;2023-04-30T07:41:56;12.80;99.90
997;DHT22;487;50.126;8.698;2023-04-30T07:44:24;12.80;99.90
997;DHT22;487;50.126;8.698;2023-04-30T07:46:53;12.90;99.90
997;DHT22;487;50.126;8.698;2023-04-30T07:49:21;12.90;99.90
997;DHT22;487;50.126;8.698;2023-04-30T07:51:49;13.10;99.90
997;DHT22;487;50.126;8.698;2023-04-30T07:54:17;13.10;99.90
997;DHT22;487;50.126;8.698;2023-04-30T07:56:45;13.20;99.90
997;DHT22;487;50.126;8.698;2023-04-30T07:59:14;13.30;99.90
997;DHT22;487;50.126;8.698;2023-04-30T08:01:43;13.40;99.90
997;DHT22;487;50.126;8.698;2023-04-30T08:04:12;13.50;99.90
997;DHT22;487;50.126;8.698;2023-04-30T08:06:40;13.50;99.90
997;DHT22;487;50.126;8.698;2023-04-30T08:09:08;13.50;99.90
997;DHT22;487;50.126;8.698;2023-04-30T08:11:36;13.60;99.90
997;DHT22;487;50.126;8.698;2023-04-30T08:14:04;13.70;99.90
997;DHT22;487;50.126;8.698;2023-04-30T08:16:32;13.70;99.90
997;DHT22;487;50.126;8.698;2023-04-30T08:19:00;13.70;99.90
997;DHT22;487;50.126;8.698;2023-04-30T08:21:30;13.70;99.90
997;DHT22;487;50.126;8.698;2023-04-30T08:23:59;13.70;99.90
997;DHT22;487;50.126;8.698;2023-04-30T08:26:26;13.80;99.90
997;DHT22;487;50.126;8.698;2023-04-30T08:28:54;13.80;99.90
997;DHT22;487;50.126;8.698;2023-04-30T08:31:22;13.90;99.90
997;DHT22;487;50.126;8.698;2023-04-30T08:33:50;14.00;99.90
997;DHT22;487;50.126;8.698;2023-04-30T08:36:18;14.00;99.90
997;DHT22;487;50.126;8.698;2023-04-30T08:38:47;14.20;99.90
997;DHT22;487;50.126;8.698;2023-04-30T08:41:15;14.20;99.90
997;DHT22;487;50.126;8.698;2023-04-30T08:43:43;14.20;99.90
997;DHT22;487;50.126;8.698;2023-04-30T08:46:11;14.20;99.90
997;DHT22;487;50.126;8.698;2023-04-30T08:48:40;14.20;99.90
997;DHT22;487;50.126;8.698;2023-04-30T08:51:08;14.20;99.90
997;DHT22;487;50.126;8.698;2023-04-30T08:53:36;14.30;99.90
997;DHT22;487;50.126;8.698;2023-04-30T08:56:09;14.30;99.90
997;DHT22;487;50.126;8.698;2023-04-30T09:01:06;14.40;99.90
997;DHT22;487;50.126;8.698;2023-04-30T09:03:35;14.50;99.90
997;DHT22;487;50.126;8.698;2023-04-30T09:06:03;14.50;99.90
997;DHT22;487;50.126;8.698;2023-04-30T09:08:41;14.60;99.90
997;DHT22;487;50.126;8.698;2023-04-30T09:11:24;14.60;99.90
997;DHT22;487;50.126;8.698;2023-04-30T09:13:53;14.80;99.90
997;DHT22;487;50.126;8.698;2023-04-30T09:16:21;14.90;99.90
997;DHT22;487;50.126;8.698;2023-04-30T09:18:51;14.90;99.90
997;DHT22;487;50.126;8.698;2023-04-30T09:21:30;15.00;99.90
997;DHT22;487;50.126;8.698;2023-04-30T09:24:01;15.00;99.90
997;DHT22;487;50.126;8.698;2023-04-30T09:26:33;15.00;99.90
997;DHT22;487;50.126;8.698;2023-04-30T09:29:02;15.10;99.90
997;DHT22;487;50.126;8.698;2023-04-30T09:31:34;15.30;99.90
997;DHT22;487;50.126;8.698;2023-04-30T09:34:03;15.30;99.90
997;DHT22;487;50.126;8.698;2023-04-30T09:36:31;15.40;99.90
997;DHT22;487;50.126;8.698;2023-04-30T09:39:05;15.30;99.90
997;DHT22;487;50.126;8.698;2023-04-30T09:44:06;15.50;99.90
997;DHT22;487;50.126;8.698;2023-04-30T09:46:34;15.50;99.90
997;DHT22;487;50.126;8.698;2023-04-30T09:49:05;15.60;99.90
997;DHT22;487;50.126;8.698;2023-04-30T09:51:33;15.60;99.90
997;DHT22;487;50.126;8.698;2023-04-30T09:54:02;15.80;99.90
997;DHT22;487;50.126;8.698;2023-04-30T09:56:33;15.80;99.90
997;DHT22;487;50.126;8.698;2023-04-30T09:59:06;16.00;99.90
997;DHT22;487;50.126;8.698;2023-04-30T10:04:06;16.00;99.90
997;DHT22;487;50.126;8.698;2023-04-30T10:06:35;16.10;99.90
997;DHT22;487;50.126;8.698;2023-04-30T10:11:34;16.20;99.90
997;DHT22;487;50.126;8.698;2023-04-30T10:14:09;15.30;99.90
997;DHT22;487;50.126;8.698;2023-04-30T10:16:43;16.20;99.90
997;DHT22;487;50.126;8.698;2023-04-30T10:19:18;16.20;99.90
997;DHT22;487;50.126;8.698;2023-04-30T10:21:46;16.30;99.90
997;DHT22;487;50.126;8.698;2023-04-30T10:24:15;16.30;99.90
997;DHT22;487;50.126;8.698;2023-04-30T10:26:46;16.40;99.90
997;DHT22;487;50.126;8.698;2023-04-30T10:29:16;16.40;99.90
997;DHT22;487;50.126;8.698;2023-04-30T10:31:46;16.40;99.90
997;DHT22;487;50.126;8.698;2023-04-30T10:36:45;16.50;99.90
997;DHT22;487;50.126;8.698;2023-04-30T10:39:17;16.70;99.90
997;DHT22;487;50.126;8.698;2023-04-30T10:41:46;16.60;99.90
997;DHT22;487;50.126;8.698;2023-04-30T10:49:29;16.70;99.90
997;DHT22;487;50.126;8.698;2023-04-30T10:51:59;16.80;99.90
997;DHT22;487;50.126;8.698;2023-04-30T10:54:28;16.80;99.90
997;DHT22;487;50.126;8.698;2023-04-30T11:00:18;17.00;99.90
997;DHT22;487;50.126;8.698;2023-04-30T11:02:46;17.00;99.90
997;DHT22;487;50.126;8.698;2023-04-30T11:10:20;17.00;99.90
997;DHT22;487;50.126;8.698;2023-04-30T11:12:49;17.20;99.90
997;DHT22;487;50.126;8.698;2023-04-30T11:15:24;17.30;99.90
997;DHT22;487;50.126;8.698;2023-04-30T11:17:55;17.30;99.90
997;DHT22;487;50.126;8.698;2023-04-30T11:23:21;17.50;99.90
997;DHT22;487;50.126;8.698;2023-04-30T11:26:06;17.60;99.90
997;DHT22;487;50.126;8.698;2023-04-30T11:28:36;17.60;99.90
997;DHT22;487;50.126;8.698;2023-04-30T11:31:05;17.60;99.90
997;DHT22;487;50.126;8.698;2023-04-30T11:36:02;17.90;99.90
997;DHT22;487;50.126;8.698;2023-04-30T11:38:33;18.00;99.90
997;DHT22;487;50.126;8.698;2023-04-30T11:41:02;18.00;99.90
997;DHT22;487;50.126;8.698;2023-04-30T11:43:31;18.00;99.90
997;DHT22;487;50.126;8.698;2023-04-30T11:46:06;18.10;99.90
997;DHT22;487;50.126;8.698;2023-04-30T11:48:36;18.00;99.90
997;DHT22;487;50.126;8.698;2023-04-30T11:51:14;18.00;99.90
997;DHT22;487;50.126;8.698;2023-04-30T11:53:44;18.10;99.90
997;DHT22;487;50.126;8.698;2023-04-30T11:56:12;18.20;99.90
997;DHT22;487;50.126;8.698;2023-04-30T11:58:40;18.30;99.90
997;DHT22;487;50.126;8.698;2023-04-30T12:01:09;18.30;99.90
997;DHT22;487;50.126;8.698;2023-04-30T12:03:41;18.20;99.90
997;DHT22;487;50.126;8.698;2023-04-30T12:06:10;18.10;99.90
997;DHT22;487;50.126;8.698;2023-04-30T12:11:19;18.10;99.90
997;DHT22;487;50.126;8.698;2023-04-30T12:13:51;18.00;99.90
997;DHT22;487;50.126;8.698;2023-04-30T12:16:22;18.00;99.90
997;DHT22;487;50.126;8.698;2023-04-30T12:18:50;18.10;99.90
997;DHT22;487;50.126;8.698;2023-04-30T12:21:20;18.30;99.90
997;DHT22;487;50.126;8.698;2023-04-30T12:23:48;18.50;99.90
997;DHT22;487;50.126;8.698;2023-04-30T12:26:16;18.70;99.90
997;DHT22;487;50.126;8.698;2023-04-30T12:28:46;18.70;99.90
997;DHT22;487;50.126;8.698;2023-04-30T12:31:16;18.70;99.90
997;DHT22;487;50.126;8.698;2023-04-30T12:33:54;18.60;99.90
997;DHT22;487;50.126;8.698;2023-04-30T12:36:28;18.40;99.90
997;DHT22;487;50.126;8.698;2023-04-30T12:39:02;18.30;99.90
997;DHT22;487;50.126;8.698;2023-04-30T12:41:35;18.20;99.90
997;DHT22;487;50.126;8.698;2023-04-30T12:46:41;18.30;99.90
997;DHT22;487;50.126;8.698;2023-04-30T12:49:10;18.40;99.90
997;DHT22;487;50.126;8.698;2023-04-30T12:51:41;18.50;99.90
997;DHT22;487;50.126;8.698;2023-04-30T12:54:09;18.40;99.90
997;DHT22;487;50.126;8.698;2023-04-30T12:56:37;18.20;99.90
997;DHT22;487;50.126;8.698;2023-04-30T12:59:13;18.20;99.90
997;DHT22;487;50.126;8.698;2023-04-30T13:01:43;18.40;99.90
997;DHT22;487;50.126;8.698;2023-04-30T13:04:13;18.40;99.90
997;DHT22;487;50.126;8.698;2023-04-30T13:06:41;18.30;99.90
997;DHT22;487;50.126;8.698;2023-04-30T13:09:09;18.30;99.90
997;DHT22;487;50.126;8.698;2023-04-30T13:11:38;18.30;99.90
997;DHT22;487;50.126;8.698;2023-04-30T13:14:05;18.30;99.90
997;DHT22;487;50.126;8.698;2023-04-30T13:16:36;18.20;99.90
997;DHT22;487;50.126;8.698;2023-04-30T13:19:05;18.20;99.90
997;DHT22;487;50.126;8.698;2023-04-30T13:21:35;18.10;99.90
997;DHT22;487;50.126;8.698;2023-04-30T13:24:03;18.20;99.90
997;DHT22;487;50.126;8.698;2023-04-30T13:26:31;18.30;99.90
997;DHT22;487;50.126;8.698;2023-04-30T13:28:59;18.40;99.90
997;DHT22;487;50.126;8.698;2023-04-30T13:31:27;18.50;99.90
997;DHT22;487;50.126;8.698;2023-04-30T13:33:55;18.60;99.90
997;DHT22;487;50.126;8.698;2023-04-30T13:36:23;18.60;99.90
997;DHT22;487;50.126;8.698;2023-04-30T13:38:52;18.60;99.90
997;DHT22;487;50.126;8.698;2023-04-30T13:41:20;18.70;99.90
997;DHT22;487;50.126;8.698;2023-04-30T13:43:48;18.70;99.90
997;DHT22;487;50.126;8.698;2023-04-30T13:46:16;18.90;99.90
997;DHT22;487;50.126;8.698;2023-04-30T13:48:44;18.90;99.90
997;DHT22;487;50.126;8.698;2023-04-30T13:51:13;19.00;99.90
997;DHT22;487;50.126;8.698;2023-04-30T13:53:41;19.10;99.90
997;DHT22;487;50.126;8.698;2023-04-30T13:56:11;19.30;99.90
997;DHT22;487;50.126;8.698;2023-04-30T13:58:40;19.40;99.90
997;DHT22;487;50.126;8.698;2023-04-30T14:01:08;19.50;99.90
997;DHT22;487;50.126;8.698;2023-04-30T14:03:37;19.50;99.90
997;DHT22;487;50.126;8.698;2023-04-30T14:06:05;19.70;99.90
997;DHT22;487;50.126;8.698;2023-04-30T14:08:33;19.80;99.90
997;DHT22;487;50.126;8.698;2023-04-30T14:11:01;19.90;99.90
997;DHT22;487;50.126;8.698;2023-04-30T14:13:31;20.10;99.90
997;DHT22;487;50.126;8.698;2023-04-30T14:16:00;20.10;99.90
997;DHT22;487;50.126;8.698;2023-04-30T14:18:28;20.10;99.90
997;DHT22;487;50.126;8.698;2023-04-30T14:20:56;20.10;99.90
997;DHT22;487;50.126;8.698;2023-04-30T14:23:24;20.00;99.90
997;DHT22;487;50.126;8.698;2023-04-30T14:25:54;19.80;99.90
997;DHT22;487;50.126;8.698;2023-04-30T14:28:22;19.70;99.90
997;DHT22;487;50.126;8.698;2023-04-30T14:30:52;19.70;99.90
997;DHT22;487;50.126;8.698;2023-04-30T14:33:19;19.70;99.90
997;DHT22;487;50.126;8.698;2023-04-30T14:35:47;19.70;99.90
997;DHT22;487;50.126;8.698;2023-04-30T14:38:15;19.70;99.90
997;DHT22;487;50.126;8.698;2023-04-30T14:40:43;19.60;99.90
997;DHT22;487;50.126;8.698;2023-04-30T14:43:11;19.70;99.90
997;DHT22;487;50.126;8.698;2023-04-30T14:45:39;19.70;99.90
997;DHT22;487;50.126;8.698;2023-04-30T14:50:36;20.10;99.90
997;DHT22;487;50.126;8.698;2023-04-30T14:53:05;20.00;99.90
997;DHT22;487;50.126;8.698;2023-04-30T14:55:35;20.00;99.90
997;DHT22;487;50.126;8.698;2023-04-30T14:58:02;19.90;99.90
997;DHT22;487;50.126;8.698;2023-04-30T15:00:31;19.90;99.90
997;DHT22;487;50.126;8.698;2023-04-30T15:02:59;19.70;99.90
997;DHT22;487;50.126;8.698;2023-04-30T15:05:28;19.60;99.90
997;DHT22;487;50.126;8.698;2023-04-30T15:07:56;19.50;99.90
997;DHT22;487;50.126;8.698;2023-04-30T15:10:24;19.40;99.90
997;DHT22;487;50.126;8.698;2023-04-30T15:12:52;19.30;99.90
997;DHT22;487;50.126;8.698;2023-04-30T15:15:20;19.40;99.90
997;DHT22;487;50.126;8.698;2023-04-30T15:17:53;19.30;99.90
997;DHT22;487;50.126;8.698;2023-04-30T15:20:21;19.30;99.90
997;DHT22;487;50.126;8.698;2023-04-30T15:22:50;19.20;99.90
997;DHT22;487;50.126;8.698;2023-04-30T15:25:20;19.20;99.90
997;DHT22;487;50.126;8.698;2023-04-30T15:27:49;19.30;99.90
997;DHT22;487;50.126;8.698;2023-04-30T15:30:17;19.30;99.90
997;DHT22;487;50.126;8.698;2023-04-30T15:32:47;19.30;99.90
997;DHT22;487;50.126;8.698;2023-04-30T15:35:16;19.30;99.90
997;DHT22;487;50.126;8.698;2023-04-30T15:37:44;19.30;99.90
997;DHT22;487;50.126;8.698;2023-04-30T15:40:13;19.30;99.90
997;DHT22;487;50.126;8.698;2023-04-30T15:42:41;19.30;99.90
997;DHT22;487;50.126;8.698;2023-04-30T15:45:09;19.40;99.90
997;DHT22;487;50.126;8.698;2023-04-30T15:47:37;19.40;99.90
997;DHT22;487;50.126;8.698;2023-04-30T15:50:07;19.50;99.90
997;DHT22;487;50.126;8.698;2023-04-30T15:52:35;19.80;99.90
997;DHT22;487;50.126;8.698;2023-04-30T15:55:06;20.00;99.90
997;DHT22;487;50.126;8.698;2023-04-30T15:57:36;20.30;99.90
997;DHT22;487;50.126;8.698;2023-04-30T16:00:05;20.50;99.90
997;DHT22;487;50.126;8.698;2023-04-30T16:02:33;20.70;99.90
997;DHT22;487;50.126;8.698;2023-04-30T16:05:01;20.90;99.90
997;DHT22;487;50.126;8.698;2023-04-30T16:07:30;21.10;99.90
997;DHT22;487;50.126;8.698;2023-04-30T16:09:58;21.10;99.70
997;DHT22;487;50.126;8.698;2023-04-30T16:12:27;20.90;97.10
997;DHT22;487;50.126;8.698;2023-04-30T16:14:56;20.80;97.30
997;DHT22;487;50.126;8.698;2023-04-30T16:17:24;20.70;97.50
997;DHT22;487;50.126;8.698;2023-04-30T16:19:52;20.50;98.40
997;DHT22;487;50.126;8.698;2023-04-30T16:22:21;20.20;98.90
997;DHT22;487;50.126;8.698;2023-04-30T16:24:49;20.10;99.90
997;DHT22;487;50.126;8.698;2023-04-30T16:27:17;20.00;99.90
997;DHT22;487;50.126;8.698;2023-04-30T16:29:45;20.00;99.90
997;DHT22;487;50.126;8.698;2023-04-30T16:32:14;19.90;99.90
997;DHT22;487;50.126;8.698;2023-04-30T16:34:42;19.90;99.90
997;DHT22;487;50.126;8.698;2023-04-30T16:37:10;19.90;99.90
997;DHT22;487;50.126;8.698;2023-04-30T16:42:07;19.70;99.90
997;DHT22;487;50.126;8.698;2023-04-30T16:47:03;19.60;99.90
997;DHT22;487;50.126;8.698;2023-04-30T16:49:32;19.60;99.90
997;DHT22;487;50.126;8.698;2023-04-30T16:52:00;19.60;99.90
997;DHT22;487;50.126;8.698;2023-04-30T16:54:29;19.60;99.90
997;DHT22;487;50.126;8.698;2023-04-30T16:56:57;19.60;99.90
997;DHT22;487;50.126;8.698;2023-04-30T16:59:24;19.70;99.90
997;DHT22;487;50.126;8.698;2023-04-30T17:01:53;19.80;99.90
997;DHT22;487;50.126;8.698;2023-04-30T17:04:24;19.80;99.90
997;DHT22;487;50.126;8.698;2023-04-30T17:06:53;19.90;99.90
997;DHT22;487;50.126;8.698;2023-04-30T17:09:21;20.00;99.90
997;DHT22;487;50.126;8.698;2023-04-30T17:11:49;20.20;99.90
997;DHT22;487;50.126;8.698;2023-04-30T17:14:17;20.30;99.70
997;DHT22;487;50.126;8.698;2023-04-30T17:16:44;20.30;98.80
997;DHT22;487;50.126;8.698;2023-04-30T17:19:12;20.30;99.50
997;DHT22;487;50.126;8.698;2023-04-30T17:21:40;20.40;99.20
997;DHT22;487;50.126;8.698;2023-04-30T17:26:38;20.50;99.20
997;DHT22;487;50.126;8.698;2023-04-30T17:29:05;20.60;99.60
997;DHT22;487;50.126;8.698;2023-04-30T17:31:34;20.70;98.70
997;DHT22;487;50.126;8.698;2023-04-30T17:38:58;20.40;99.80
997;DHT22;487;50.126;8.698;2023-04-30T17:41:33;20.50;99.90
997;DHT22;487;50.126;8.698;2023-04-30T17:44:01;20.50;99.90
997;DHT22;487;50.126;8.698;2023-04-30T17:46:29;20.70;99.90
997;DHT22;487;50.126;8.698;2023-04-30T17:48:57;20.70;99.90
997;DHT22;487;50.126;8.698;2023-04-30T17:51:27;20.70;99.90
997;DHT22;487;50.126;8.698;2023-04-30T17:53:57;20.60;99.90
997;DHT22;487;50.126;8.698;2023-04-30T17:56:26;20.60;99.90
997;DHT22;487;50.126;8.698;2023-04-30T17:58:56;20.40;99.90
997;DHT22;487;50.126;8.698;2023-04-30T18:01:25;20.40;99.90
997;DHT22;487;50.126;8.698;2023-04-30T18:49:49;18.10;99.90
997;DHT22;487;50.126;8.698;2023-04-30T18:54:45;17.90;99.90
997;DHT22;487;50.126;8.698;2023-04-30T19:05:33;17.60;99.90
997;DHT22;487;50.126;8.698;2023-04-30T19:08:01;17.50;99.90
997;DHT22;487;50.126;8.698;2023-04-30T19:10:33;17.40;99.90
997;DHT22;487;50.126;8.698;2023-04-30T19:13:01;17.30;99.90
997;DHT22;487;50.126;8.698;2023-04-30T19:20:30;17.10;99.90
997;DHT22;487;50.126;8.698;2023-04-30T19:23:01;17.10;99.90
997;DHT22;487;50.126;8.698;2023-04-30T19:25:30;17.00;99.90
997;DHT22;487;50.126;8.698;2023-04-30T19:27:58;17.10;99.90
997;DHT22;487;50.126;8.698;2023-04-30T19:35:37;16.80;99.90
997;DHT22;487;50.126;8.698;2023-04-30T19:56:21;16.70;99.90
997;DHT22;487;50.126;8.698;2023-04-30T20:01:27;16.50;99.90
997;DHT22;487;50.126;8.698;2023-04-30T20:03:56;16.50;99.90
997;DHT22;487;50.126;8.698;2023-04-30T20:08:56;16.50;99.90
997;DHT22;487;50.126;8.698;2023-04-30T20:32:39;16.20;99.90
997;DHT22;487;50.126;8.698;2023-04-30T20:42:43;16.00;99.90
997;DHT22;487;50.126;8.698;2023-04-30T20:45:11;16.00;99.90
997;DHT22;487;50.126;8.698;2023-04-30T20:50:08;16.00;99.90
997;DHT22;487;50.126;8.698;2023-04-30T20:52:37;15.90;99.90
997;DHT22;487;50.126;8.698;2023-04-30T20:55:06;15.90;99.90
997;DHT22;487;50.126;8.698;2023-04-30T20:57:34;15.80;99.90
997;DHT22;487;50.126;8.698;2023-04-30T21:00:02;15.70;99.90
997;DHT22;487;50.126;8.698;2023-04-30T21:02:32;15.80;99.90
997;DHT22;487;50.126;8.698;2023-04-30T21:05:00;15.60;99.90
997;DHT22;487;50.126;8.698;2023-04-30T21:07:30;15.60;99.90
997;DHT22;487;50.126;8.698;2023-04-30T21:10:01;15.60;99.90
997;DHT22;487;50.126;8.698;2023-04-30T21:12:30;15.50;99.90
997;DHT22;487;50.126;8.698;2023-04-30T21:14:58;15.50;99.90
997;DHT22;487;50.126;8.698;2023-04-30T21:17:26;15.50;99.90
997;DHT22;487;50.126;8.698;2023-04-30T21:19:54;15.40;99.90
997;DHT22;487;50.126;8.698;2023-04-30T21:22:23;15.40;99.90
997;DHT22;487;50.126;8.698;2023-04-30T21:24:51;15.50;99.90
997;DHT22;487;50.126;8.698;2023-04-30T21:27:21;15.40;99.90
997;DHT22;487;50.126;8.698;2023-04-30T21:29:49;15.40;99.90
997;DHT22;487;50.126;8.698;2023-04-30T21:32:17;15.40;99.90
997;DHT22;487;50.126;8.698;2023-04-30T21:34:44;15.40;99.90
997;DHT22;487;50.126;8.698;2023-04-30T21:37:12;15.40;99.90
997;DHT22;487;50.126;8.698;2023-04-30T21:39:43;15.40;99.90
997;DHT22;487;50.126;8.698;2023-04-30T21:42:10;15.30;99.90
997;DHT22;487;50.126;8.698;2023-04-30T21:44:40;15.40;99.90
997;DHT22;487;50.126;8.698;2023-04-30T21:47:07;15.30;99.90
997;DHT22;487;50.126;8.698;2023-04-30T21:49:36;15.20;99.90
997;DHT22;487;50.126;8.698;2023-04-30T21:52:04;15.30;99.90
997;DHT22;487;50.126;8.698;2023-04-30T21:54:34;15.20;99.90
997;DHT22;487;50.126;8.698;2023-04-30T21:57:02;15.20;99.90
997;DHT22;487;50.126;8.698;2023-04-30T21:59:32;15.20;99.90
997;DHT22;487;50.126;8.698;2023-04-30T22:02:01;15.20;99.90
997;DHT22;487;50.126;8.698;2023-04-30T22:04:48;15.20;99.90
997;DHT22;487;50.126;8.698;2023-04-30T22:07:15;15.10;99.90
997;DHT22;487;50.126;8.698;2023-04-30T22:09:43;15.10;99.90
997;DHT22;487;50.126;8.698;2023-04-30T22:12:11;15.10;99.90
997;DHT22;487;50.126;8.698;2023-04-30T22:14:39;15.00;99.90
997;DHT22;487;50.126;8.698;2023-04-30T22:17:09;14.90;99.90
997;DHT22;487;50.126;8.698;2023-04-30T22:19:37;15.00;99.90
997;DHT22;487;50.126;8.698;2023-04-30T22:22:04;15.10;99.90
997;DHT22;487;50.126;8.698;2023-04-30T22:24:32;15.10;99.90
997;DHT22;487;50.126;8.698;2023-04-30T22:27:00;15.10;99.90
997;DHT22;487;50.126;8.698;2023-04-30T22:29:29;15.10;99.90
997;DHT22;487;50.126;8.698;2023-04-30T22:31:57;15.10;99.90
997;DHT22;487;50.126;8.698;2023-04-30T22:34:27;15.10;99.90
997;DHT22;487;50.126;8.698;2023-04-30T22:36:56;15.90;99.90
997;DHT22;487;50.126;8.698;2023-04-30T22:39:23;15.00;99.90
997;DHT22;487;50.126;8.698;2023-04-30T22:41:52;15.00;99.90
997;DHT22;487;50.126;8.698;2023-04-30T22:44:20;15.00;99.90
997;DHT22;487;50.126;8.698;2023-04-30T22:46:48;14.90;99.90
997;DHT22;487;50.126;8.698;2023-04-30T22:49:16;14.90;99.90
997;DHT22;487;50.126;8.698;2023-04-30T22:51:57;14.90;99.90
997;DHT22;487;50.126;8.698;2023-04-30T22:54:25;14.90;99.90
997;DHT22;487;50.126;8.698;2023-04-30T22:56:53;14.90;99.90
997;DHT22;487;50.126;8.698;2023-04-30T22:59:21;14.80;99.90
997;DHT22;487;50.126;8.698;2023-04-30T23:01:49;14.80;99.90
997;DHT22;487;50.126;8.698;2023-04-30T23:04:17;15.70;99.90
997;DHT22;487;50.126;8.698;2023-04-30T23:06:45;14.60;99.90
997;DHT22;487;50.126;8.698;2023-04-30T23:09:14;14.60;99.90
997;DHT22;487;50.126;8.698;2023-04-30T23:11:43;14.60;99.90
997;DHT22;487;50.126;8.698;2023-04-30T23:14:11;14.60;99.90
997;DHT22;487;50.126;8.698;2023-04-30T23:16:39;14.50;99.90
997;DHT22;487;50.126;8.698;2023-04-30T23:19:08;14.50;99.90
997;DHT22;487;50.126;8.698;2023-04-30T23:21:36;14.50;99.90
997;DHT22;487;50.126;8.698;2023-04-30T23:24:04;14.50;99.90
997;DHT22;487;50.126;8.698;2023-04-30T23:26:33;14.50;99.90
997;DHT22;487;50.126;8.698;2023-04-30T23:29:01;14.50;99.90
997;DHT22;487;50.126;8.698;2023-04-30T23:31:29;14.50;99.90
997;DHT22;487;50.126;8.698;2023-04-30T23:33:57;14.40;99.90
997;DHT22;487;50.126;8.698;2023-04-30T23:36:25;14.40;99.90
997;DHT22;487;50.126;8.698;2023-04-30T23:38:53;14.40;99.90
997;DHT22;487;50.126;8.698;2023-04-30T23:41:21;14.40;99.90
997;DHT22;487;50.126;8.698;2023-04-30T23:43:50;14.30;99.90
997;DHT22;487;50.126;8.698;2023-04-30T23:48:48;14.20;99.90